Time;durP1;ratioP1;P1;durP2;ratioP2;P2;SDS_P1;SDS_P2;PMS_P1;PMS_P2;Temp;Humidity;BMP_temperature;BMP_pressure;BME280_temperature;BME280_humidity;BME280_pressure;Samples;Min_cycle;Max_cycle;Signal;HPM_P1;HPM_P2
2021/07/09 00:01:47;;;;;;;7.33;4.93;;;20.30;83.80;;;;;;5094606;28;20990;-75
2021/07/09 00:04:15;;;;;;;13.87;4.17;;;20.20;83.80;;;;;;5094876;28;20443;-75
2021/07/09 00:06:42;;;;;;;7.40;4.50;;;20.20;84.10;;;;;;5094736;28;20444;-75
2021/07/09 00:09:10;;;;;;;5.83;3.90;;;20.10;84.10;;;;;;5094265;28;20984;-75
2021/07/09 00:11:38;;;;;;;10.70;5.37;;;20.10;84.20;;;;;;5094645;28;20870;-75
2021/07/09 00:14:07;;;;;;;14.47;5.67;;;20.00;84.10;;;;;;5094670;28;20448;-75
2021/07/09 00:16:34;;;;;;;17.77;4.80;;;19.80;85.00;;;;;;5094573;28;20447;-75
2021/07/09 00:19:03;;;;;;;14.83;5.10;;;19.80;85.90;;;;;;5094204;28;20959;-75
2021/07/09 00:21:32;;;;;;;14.63;4.57;;;19.80;86.30;;;;;;5094438;28;20554;-76
2021/07/09 00:23:59;;;;;;;12.90;5.40;;;19.80;86.30;;;;;;5094462;28;20483;-75
2021/07/09 00:26:26;;;;;;;9.57;4.40;;;19.80;86.10;;;;;;5094448;28;20443;-75
2021/07/09 00:28:52;;;;;;;17.17;4.60;;;19.80;86.00;;;;;;5093961;28;20471;-75
2021/07/09 00:31:21;;;;;;;17.27;4.93;;;19.90;86.30;;;;;;5094305;28;20455;-75
2021/07/09 00:33:47;;;;;;;14.43;5.50;;;19.90;85.80;;;;;;5094001;28;20952;-75
2021/07/09 00:36:14;;;;;;;13.60;5.10;;;19.90;85.90;;;;;;5094232;28;20446;-75
2021/07/09 00:38:41;;;;;;;17.87;5.50;;;19.80;85.80;;;;;;5094202;28;20440;-75
2021/07/09 00:41:08;;;;;;;15.10;5.87;;;19.80;86.10;;;;;;5094094;28;20460;-75
2021/07/09 00:43:35;;;;;;;12.07;5.13;;;19.80;86.30;;;;;;5094071;28;20447;-75
2021/07/09 00:46:01;;;;;;;15.00;5.53;;;19.80;86.60;;;;;;5094070;28;20503;-75
2021/07/09 00:48:30;;;;;;;11.57;5.87;;;19.80;87.80;;;;;;5093620;28;21019;-75
2021/07/09 00:50:58;;;;;;;15.17;5.03;;;19.70;87.50;;;;;;5093695;28;20483;-75
2021/07/09 00:53:25;;;;;;;7.53;4.87;;;19.70;87.80;;;;;;5094469;28;20451;-75
2021/07/09 00:55:53;;;;;;;10.07;5.50;;;19.70;87.80;;;;;;5093965;28;20526;-76
2021/07/09 00:58:21;;;;;;;10.73;6.20;;;19.70;87.80;;;;;;5093881;28;20501;-76
2021/07/09 01:00:48;;;;;;;12.37;5.17;;;19.80;87.80;;;;;;5093489;28;20972;-76
2021/07/09 01:03:15;;;;;;;16.97;5.13;;;19.80;87.90;;;;;;5093792;28;20466;-76
2021/07/09 01:05:43;;;;;;;10.07;4.73;;;19.80;87.80;;;;;;5093405;28;20952;-76
2021/07/09 01:08:10;;;;;;;11.23;5.57;;;19.80;87.80;;;;;;5093377;28;20987;-76
2021/07/09 01:10:37;;;;;;;12.80;5.23;;;19.80;87.90;;;;;;5093372;28;20529;-76
2021/07/09 01:13:04;;;;;;;11.00;5.47;;;19.90;88.00;;;;;;5093429;28;20943;-76
2021/07/09 01:15:31;;;;;;;8.97;5.60;;;19.80;87.80;;;;;;5093644;28;20444;-76
2021/07/09 01:17:58;;;;;;;8.97;4.97;;;19.80;87.90;;;;;;5093660;28;20440;-76
2021/07/09 01:20:24;;;;;;;7.10;5.20;;;19.80;88.00;;;;;;5094080;28;20463;-76
2021/07/09 01:22:52;;;;;;;9.83;5.73;;;19.90;88.20;;;;;;5093323;28;20789;-76
2021/07/09 01:25:22;;;;;;;11.57;6.60;;;19.90;88.30;;;;;;5093323;28;20440;-76
2021/07/09 01:27:53;;;;;;;12.23;6.33;;;19.80;88.50;;;;;;5093187;28;20451;-76
2021/07/09 01:30:22;;;;;;;14.20;7.80;;;19.70;89.00;;;;;;5093427;28;20464;-76
2021/07/09 01:32:50;;;;;;;13.67;8.20;;;19.60;89.70;;;;;;5093526;28;20432;-76
2021/07/09 01:35:18;;;;;;;11.43;7.33;;;19.50;90.20;;;;;;5093175;28;20928;-76
2021/07/09 01:37:54;;;;;;;14.40;7.80;;;19.40;90.40;;;;;;5093444;28;20439;-76
2021/07/09 01:40:23;;;;;;;11.90;7.43;;;19.40;90.70;;;;;;5093425;28;20894;-76
2021/07/09 01:42:50;;;;;;;15.87;8.00;;;19.40;90.70;;;;;;5093375;28;20446;-76
2021/07/09 01:45:16;;;;;;;14.17;8.13;;;19.50;90.70;;;;;;5094177;28;20469;-76
2021/07/09 01:47:43;;;;;;;13.60;7.43;;;19.50;90.80;;;;;;5093378;28;20476;-76
2021/07/09 01:50:10;;;;;;;10.00;7.77;;;19.50;90.70;;;;;;5093167;28;20888;-76
2021/07/09 01:52:37;;;;;;;13.53;8.40;;;19.50;90.60;;;;;;5092900;28;20459;-76
2021/07/09 01:55:06;;;;;;;13.57;8.83;;;19.60;90.60;;;;;;5093279;28;20443;-76
2021/07/09 01:57:34;;;;;;;14.57;10.00;;;19.60;90.50;;;;;;5093193;28;20444;-76
2021/07/09 02:00:02;;;;;;;15.77;10.43;;;19.60;90.40;;;;;;5093141;28;20468;-76
2021/07/09 02:02:29;;;;;;;12.83;9.23;;;19.60;90.40;;;;;;5094060;28;20448;-76
2021/07/09 02:04:57;;;;;;;15.90;9.07;;;19.60;90.50;;;;;;5093167;28;20446;-76
2021/07/09 02:07:25;;;;;;;27.47;10.87;;;19.60;90.70;;;;;;5093163;28;20471;-76
2021/07/09 02:09:55;;;;;;;17.30;10.80;;;19.60;90.70;;;;;;5093010;28;20552;-76
2021/07/09 02:12:25;;;;;;;16.50;9.40;;;19.50;90.80;;;;;;5094009;28;20463;-76
2021/07/09 02:14:54;;;;;;;14.60;10.07;;;19.50;91.00;;;;;;5093088;28;20475;-76
2021/07/09 02:17:22;;;;;;;17.27;10.80;;;19.40;91.00;;;;;;5093036;28;20444;-76
2021/07/09 02:19:50;;;;;;;10.37;9.20;;;19.40;91.00;;;;;;5093017;28;20447;-76
2021/07/09 02:22:18;;;;;;;16.53;10.80;;;19.40;91.10;;;;;;5094804;28;20447;-76
2021/07/09 02:24:46;;;;;;;23.80;12.07;;;19.40;91.20;;;;;;5096758;28;20457;-76
2021/07/09 02:27:13;;;;;;;28.33;12.80;;;19.40;91.20;;;;;;5096669;28;20447;-76
2021/07/09 02:29:40;;;;;;;19.87;12.67;;;19.40;91.10;;;;;;5096348;28;20874;-76
2021/07/09 02:32:11;;;;;;;20.20;13.43;;;19.30;91.10;;;;;;5096698;28;20439;-76
2021/07/09 02:34:38;;;;;;;19.40;14.50;;;19.40;91.50;;;;;;5096630;28;20431;-76
2021/07/09 02:37:07;;;;;;;17.93;13.83;;;19.30;91.20;;;;;;5096482;28;20443;-76
2021/07/09 02:39:35;;;;;;;19.00;14.80;;;19.40;91.30;;;;;;5096515;28;20440;-76
2021/07/09 02:42:02;;;;;;;19.80;13.83;;;19.40;91.10;;;;;;5096017;28;20531;-76
2021/07/09 02:44:28;;;;;;;16.97;14.30;;;19.30;91.20;;;;;;5096035;28;20795;-76
2021/07/09 02:46:55;;;;;;;26.43;16.00;;;19.30;91.30;;;;;;5096006;28;20497;-76
2021/07/09 02:49:24;;;;;;;18.17;16.30;;;19.20;91.50;;;;;;5096192;28;20524;-76
2021/07/09 02:51:51;;;;;;;18.30;15.43;;;19.20;91.60;;;;;;5095856;28;20494;-76
2021/07/09 02:54:18;;;;;;;19.07;16.40;;;19.20;91.80;;;;;;5095881;28;20932;-76
2021/07/09 02:56:45;;;;;;;18.33;16.40;;;19.20;91.90;;;;;;5096070;28;20448;-76
2021/07/09 02:59:12;;;;;;;19.30;17.60;;;19.20;92.00;;;;;;5095683;28;20933;-76
2021/07/09 03:01:41;;;;;;;21.20;17.40;;;19.10;92.00;;;;;;5095983;28;20459;-76
2021/07/09 03:04:07;;;;;;;19.17;16.07;;;19.10;92.10;;;;;;5095715;28;20444;-76
2021/07/09 03:06:36;;;;;;;18.37;16.50;;;19.20;92.20;;;;;;5096014;28;20465;-76
2021/07/09 03:09:03;;;;;;;24.77;18.73;;;19.20;92.30;;;;;;5095847;28;20514;-76
2021/07/09 03:11:30;;;;;;;18.47;16.60;;;19.20;92.30;;;;;;5095769;28;20560;-76
2021/07/09 03:13:57;;;;;;;19.20;17.20;;;19.20;92.30;;;;;;5095838;28;20504;-76
2021/07/09 03:16:23;;;;;;;19.90;16.90;;;19.10;92.20;;;;;;5095798;28;20481;-76
2021/07/09 03:18:50;;;;;;;20.60;17.90;;;19.10;92.20;;;;;;5095433;28;20436;-76
2021/07/09 03:21:17;;;;;;;17.83;15.67;;;19.10;92.30;;;;;;5095623;28;20472;-76
2021/07/09 03:23:45;;;;;;;19.33;17.27;;;19.10;92.30;;;;;;5095317;28;20447;-76
2021/07/09 03:26:12;;;;;;;20.23;16.40;;;19.10;92.40;;;;;;5095295;28;20929;-76
2021/07/09 03:28:39;;;;;;;19.10;16.80;;;19.00;92.60;;;;;;5095560;28;20447;-76
2021/07/09 03:31:06;;;;;;;23.30;18.13;;;19.00;92.70;;;;;;5095420;28;20463;-76
2021/07/09 03:33:33;;;;;;;19.40;17.40;;;19.00;92.80;;;;;;5095021;28;20440;-76
2021/07/09 03:36:00;;;;;;;19.63;17.33;;;19.00;92.90;;;;;;5095389;28;20451;-76
2021/07/09 03:38:26;;;;;;;21.80;17.73;;;19.00;92.90;;;;;;5095354;28;20451;-76
2021/07/09 03:40:54;;;;;;;22.10;17.93;;;19.00;93.00;;;;;;5095768;28;20463;-76
2021/07/09 03:43:21;;;;;;;23.03;17.93;;;18.90;92.80;;;;;;5095303;28;20446;-76
2021/07/09 03:45:48;;;;;;;21.03;18.50;;;18.90;92.80;;;;;;5095172;28;20451;-76
2021/07/09 03:48:15;;;;;;;18.80;16.90;;;18.90;92.90;;;;;;5094809;28;20944;-76
2021/07/09 03:50:42;;;;;;;20.50;18.33;;;18.90;93.00;;;;;;5094715;28;20498;-76
2021/07/09 03:53:08;;;;;;;19.97;17.83;;;18.90;93.00;;;;;;5094772;28;20848;-76
2021/07/09 03:55:35;;;;;;;25.30;18.90;;;18.90;93.00;;;;;;5094957;28;20444;-76
2021/07/09 03:58:04;;;;;;;20.80;18.00;;;18.90;93.10;;;;;;5094960;28;20428;-76
2021/07/09 04:00:31;;;;;;;22.00;18.30;;;19.00;93.10;;;;;;5094535;28;20456;-76
2021/07/09 04:02:57;;;;;;;20.80;18.73;;;19.00;93.00;;;;;;5094565;28;20448;-76
2021/07/09 04:05:24;;;;;;;22.63;19.00;;;19.00;92.90;;;;;;5094836;28;20451;-76
2021/07/09 04:07:51;;;;;;;20.67;18.60;;;19.10;92.90;;;;;;5094743;28;20447;-76
2021/07/09 04:10:20;;;;;;;20.73;18.83;;;19.00;92.90;;;;;;5094615;28;20480;-76
2021/07/09 04:12:46;;;;;;;20.17;18.07;;;19.10;92.90;;;;;;5094660;28;20501;-76
2021/07/09 04:15:15;;;;;;;22.73;20.40;;;19.00;92.80;;;;;;5094367;28;20932;-76
2021/07/09 04:17:41;;;;;;;19.43;17.23;;;19.00;92.80;;;;;;5094712;28;20444;-76
2021/07/09 04:20:09;;;;;;;22.43;18.33;;;19.00;92.80;;;;;;5094223;28;20827;-76
2021/07/09 04:22:37;;;;;;;24.23;19.47;;;19.10;92.90;;;;;;5094523;28;20815;-76
2021/07/09 04:25:07;;;;;;;21.03;18.80;;;19.20;92.70;;;;;;5095264;28;20443;-77
2021/07/09 04:27:34;;;;;;;22.53;20.03;;;19.10;92.60;;;;;;5097266;28;20467;-77
2021/07/09 04:30:01;;;;;;;22.60;20.43;;;19.10;92.60;;;;;;5095414;28;20479;-76
2021/07/09 04:32:29;;;;;;;23.53;21.27;;;19.10;92.60;;;;;;5095292;28;20792;-77
2021/07/09 04:34:56;;;;;;;22.57;20.47;;;19.00;92.70;;;;;;5095031;28;20448;-77
2021/07/09 04:37:23;;;;;;;25.20;21.30;;;19.00;92.90;;;;;;5097794;28;20469;-76
2021/07/09 04:39:50;;;;;;;22.53;20.10;;;19.00;92.80;;;;;;5099936;28;20534;-77
2021/07/09 04:42:17;;;;;;;24.00;21.50;;;18.90;92.80;;;;;;5095444;28;20450;-77
2021/07/09 04:44:44;;;;;;;25.17;21.90;;;19.00;92.90;;;;;;5094480;28;20913;-77
2021/07/09 04:47:10;;;;;;;24.43;22.07;;;19.00;92.90;;;;;;5095011;28;20446;-77
2021/07/09 04:49:39;;;;;;;23.90;21.40;;;19.00;93.00;;;;;;5094738;28;20475;-77
2021/07/09 04:52:07;;;;;;;22.97;20.77;;;19.00;93.00;;;;;;5094608;28;20850;-77
2021/07/09 04:54:33;;;;;;;28.47;22.07;;;19.00;93.00;;;;;;5094678;28;20448;-77
2021/07/09 04:57:00;;;;;;;26.17;22.70;;;19.00;93.10;;;;;;5094322;28;20443;-77
2021/07/09 04:59:27;;;;;;;26.43;23.47;;;19.00;93.50;;;;;;5094201;28;20424;-77
2021/07/09 05:01:54;;;;;;;24.03;21.83;;;19.10;93.30;;;;;;5094125;28;20460;-77
2021/07/09 05:04:21;;;;;;;25.83;23.30;;;19.10;93.30;;;;;;5094128;28;20443;-77
2021/07/09 05:06:49;;;;;;;25.07;22.57;;;19.10;93.40;;;;;;5094015;28;20455;-77
2021/07/09 05:09:16;;;;;;;29.53;24.47;;;19.10;93.30;;;;;;5094234;28;20472;-77
2021/07/09 05:11:43;;;;;;;25.57;22.80;;;19.10;93.20;;;;;;5094046;28;20467;-77
2021/07/09 05:14:10;;;;;;;26.20;23.50;;;19.20;93.20;;;;;;5094037;28;20443;-77
2021/07/09 05:16:37;;;;;;;26.33;23.57;;;19.20;93.20;;;;;;5093836;28;20803;-77
2021/07/09 05:19:04;;;;;;;25.50;23.10;;;19.20;93.10;;;;;;5093933;28;20480;-77
2021/07/09 05:21:32;;;;;;;24.10;21.60;;;19.30;93.00;;;;;;5094067;28;20470;-77
2021/07/09 05:24:04;;;;;;;24.30;21.87;;;19.30;93.10;;;;;;5093505;28;20444;-77
2021/07/09 05:26:31;;;;;;;24.20;21.60;;;19.40;93.00;;;;;;5093661;28;20967;-77
2021/07/09 05:28:57;;;;;;;25.10;22.50;;;19.40;92.90;;;;;;5093752;28;20444;-77
2021/07/09 05:31:24;;;;;;;24.17;21.97;;;19.40;92.80;;;;;;5093613;28;20467;-77
2021/07/09 05:33:51;;;;;;;23.93;21.60;;;19.40;92.90;;;;;;5093786;28;20448;-77
2021/07/09 05:36:20;;;;;;;23.43;20.93;;;19.40;93.00;;;;;;5094202;28;20843;-77
2021/07/09 05:38:46;;;;;;;23.63;21.43;;;19.50;92.90;;;;;;5093749;28;20447;-77
2021/07/09 05:41:14;;;;;;;25.80;22.77;;;19.40;92.80;;;;;;5093762;28;20456;-77
2021/07/09 05:43:42;;;;;;;26.23;23.57;;;19.50;92.90;;;;;;5093917;28;20497;-77
2021/07/09 05:46:09;;;;;;;25.03;22.63;;;19.50;92.70;;;;;;5093822;28;20440;-77
2021/07/09 05:48:36;;;;;;;24.60;22.40;;;19.40;92.50;;;;;;5093546;28;20451;-76
2021/07/09 05:51:02;;;;;;;25.00;22.27;;;19.40;92.50;;;;;;5093500;28;20488;-77
2021/07/09 05:53:29;;;;;;;22.63;20.40;;;19.40;92.90;;;;;;5093746;28;20455;-77
2021/07/09 05:55:56;;;;;;;27.07;24.43;;;19.40;92.60;;;;;;5093705;28;20546;-77
2021/07/09 05:58:24;;;;;;;24.00;21.80;;;19.40;92.70;;;;;;5097452;28;20443;-77
2021/07/09 06:00:51;;;;;;;25.80;22.90;;;19.50;92.50;;;;;;5097710;28;20466;-76
2021/07/09 06:03:17;;;;;;;24.33;21.93;;;19.50;92.50;;;;;;5097784;28;20444;-76
2021/07/09 06:05:44;;;;;;;24.30;21.93;;;19.50;92.60;;;;;;5097467;28;20808;-76
2021/07/09 06:08:11;;;;;;;24.47;21.83;;;19.50;92.60;;;;;;5097154;28;20428;-77
2021/07/09 06:10:38;;;;;;;25.17;22.60;;;19.60;92.50;;;;;;5096862;28;20494;-76
2021/07/09 06:13:05;;;;;;;23.87;21.50;;;19.70;92.40;;;;;;5097213;28;20424;-77
2021/07/09 06:15:34;;;;;;;24.43;21.90;;;19.70;92.30;;;;;;5097323;28;20466;-76
2021/07/09 06:18:00;;;;;;;24.37;21.10;;;19.70;92.40;;;;;;5097351;28;20450;-77
2021/07/09 06:20:27;;;;;;;23.63;21.27;;;19.70;92.30;;;;;;5096918;28;20977;-77
2021/07/09 06:22:54;;;;;;;22.97;20.67;;;19.80;92.40;;;;;;5097185;28;20447;-77
2021/07/09 06:25:20;;;;;;;23.03;20.60;;;19.80;92.40;;;;;;5097155;28;20435;-77
2021/07/09 06:27:47;;;;;;;24.37;21.20;;;19.90;92.20;;;;;;5096915;28;20443;-77
2021/07/09 06:30:15;;;;;;;23.67;21.00;;;19.90;92.10;;;;;;5096866;28;20528;-76
2021/07/09 06:32:43;;;;;;;23.77;20.27;;;20.00;92.00;;;;;;5097351;28;20443;-77
2021/07/09 06:35:10;;;;;;;23.20;20.27;;;20.00;91.90;;;;;;5096690;28;20945;-77
2021/07/09 06:37:38;;;;;;;22.97;20.57;;;20.00;91.90;;;;;;5096934;28;20428;-76
2021/07/09 06:40:08;;;;;;;25.50;21.60;;;20.00;91.90;;;;;;5096752;28;20464;-76
2021/07/09 06:42:34;;;;;;;22.60;19.70;;;20.00;92.00;;;;;;5096463;28;20451;-77
2021/07/09 06:45:01;;;;;;;24.03;20.20;;;20.10;92.10;;;;;;5096543;28;20431;-77
2021/07/09 06:47:28;;;;;;;21.97;19.77;;;20.10;92.20;;;;;;5096209;28;20439;-76
2021/07/09 06:49:56;;;;;;;23.40;18.87;;;20.10;92.00;;;;;;5096439;28;20472;-77
2021/07/09 06:52:23;;;;;;;22.33;19.93;;;20.10;91.70;;;;;;5096122;28;20463;-77
2021/07/09 06:54:50;;;;;;;22.37;20.20;;;20.10;91.60;;;;;;5097152;28;20444;-77
2021/07/09 06:57:16;;;;;;;21.90;19.60;;;20.10;91.80;;;;;;5096462;28;20500;-76
2021/07/09 06:59:44;;;;;;;22.57;19.90;;;20.10;91.80;;;;;;5096442;28;20428;-75
2021/07/09 07:02:11;;;;;;;21.47;19.27;;;20.10;91.70;;;;;;5096490;28;20531;-77
2021/07/09 07:04:38;;;;;;;21.67;19.57;;;20.10;91.50;;;;;;5096539;28;20928;-77
2021/07/09 07:07:06;;;;;;;19.87;17.70;;;20.10;91.60;;;;;;5095842;28;20854;-77
2021/07/09 07:09:33;;;;;;;26.53;21.57;;;20.10;91.80;;;;;;5095734;28;20447;-77
2021/07/09 07:12:02;;;;;;;22.97;19.60;;;20.00;91.50;;;;;;5096039;28;20483;-77
2021/07/09 07:14:29;;;;;;;22.07;19.57;;;20.10;91.40;;;;;;5095834;28;21046;-77
2021/07/09 07:16:56;;;;;;;21.27;18.30;;;20.10;91.20;;;;;;5095843;28;20462;-76
2021/07/09 07:19:23;;;;;;;15.60;11.83;;;20.10;91.10;;;;;;5095702;28;20816;-76
2021/07/09 07:21:49;;;;;;;22.60;14.77;;;20.10;89.40;;;;;;5095673;28;20468;-76
2021/07/09 07:24:18;;;;;;;17.80;16.00;;;20.20;89.10;;;;;;5095655;28;20807;-76
2021/07/09 07:26:44;;;;;;;16.03;14.03;;;20.20;88.40;;;;;;5096158;28;20440;-76
2021/07/09 07:29:11;;;;;;;19.20;15.97;;;20.40;88.40;;;;;;5095516;28;20941;-76
2021/07/09 07:31:38;;;;;;;16.60;14.90;;;20.50;88.00;;;;;;5095217;28;20988;-76
2021/07/09 07:34:05;;;;;;;16.27;14.57;;;20.60;87.70;;;;;;5096676;28;20448;-76
2021/07/09 07:36:32;;;;;;;17.10;13.30;;;20.60;87.60;;;;;;5095583;28;20454;-77
2021/07/09 07:38:59;;;;;;;14.53;13.03;;;20.70;87.10;;;;;;5095519;28;20446;-76
2021/07/09 07:41:27;;;;;;;21.27;17.30;;;20.70;86.90;;;;;;5095456;28;20463;-77
2021/07/09 07:43:53;;;;;;;19.33;16.47;;;20.70;87.40;;;;;;5095319;28;20960;-77
2021/07/09 07:46:20;;;;;;;16.13;14.53;;;20.70;87.90;;;;;;5095441;28;20439;-77
2021/07/09 07:48:47;;;;;;;24.17;17.00;;;20.60;87.60;;;;;;5095501;28;20451;-76
2021/07/09 07:51:14;;;;;;;21.50;18.60;;;20.40;88.60;;;;;;5095082;28;20491;-76
2021/07/09 07:53:41;;;;;;;20.23;17.70;;;20.20;90.00;;;;;;5094947;28;20446;-77
2021/07/09 07:56:08;;;;;;;20.93;16.90;;;20.00;90.00;;;;;;5095339;28;20451;-77
2021/07/09 07:58:37;;;;;;;24.80;18.87;;;19.90;90.40;;;;;;5095098;28;20428;-76
2021/07/09 08:01:04;;;;;;;28.47;17.30;;;19.80;90.60;;;;;;5095247;28;20831;-77
2021/07/09 08:03:31;;;;;;;23.93;20.10;;;19.90;91.10;;;;;;5095682;28;20431;-77
2021/07/09 08:05:57;;;;;;;23.17;18.90;;;20.00;91.40;;;;;;5095435;28;20940;-76
2021/07/09 08:08:24;;;;;;;22.53;17.80;;;20.10;91.40;;;;;;5095908;28;20470;-77
2021/07/09 08:10:51;;;;;;;22.57;18.83;;;20.10;91.10;;;;;;5095533;28;20476;-76
2021/07/09 08:13:18;;;;;;;20.90;18.73;;;20.20;91.30;;;;;;5095507;28;20815;-76
2021/07/09 08:15:46;;;;;;;20.23;17.53;;;20.40;91.30;;;;;;5095535;28;20433;-76
2021/07/09 08:18:12;;;;;;;20.80;17.70;;;20.40;90.20;;;;;;5096421;28;20431;-77
2021/07/09 08:20:39;;;;;;;22.87;18.60;;;20.40;90.20;;;;;;5094033;28;20467;-77
2021/07/09 08:23:07;;;;;;;19.13;17.10;;;20.50;90.20;;;;;;5094696;28;20424;-77
2021/07/09 08:25:33;;;;;;;20.33;17.13;;;20.60;89.90;;;;;;5094942;28;20431;-76
2021/07/09 08:28:00;;;;;;;21.70;16.87;;;20.60;89.70;;;;;;5094355;28;20819;-77
2021/07/09 08:30:27;;;;;;;19.83;16.80;;;20.70;90.00;;;;;;5094282;28;21042;-77
2021/07/09 08:32:55;;;;;;;20.37;17.00;;;20.70;89.50;;;;;;5094911;28;20435;-77
2021/07/09 08:35:23;;;;;;;19.80;17.30;;;20.80;90.00;;;;;;5095042;28;20424;-77
2021/07/09 08:37:49;;;;;;;22.33;17.57;;;20.90;89.90;;;;;;5095521;28;20432;-76
2021/07/09 08:40:17;;;;;;;20.43;17.30;;;21.00;90.00;;;;;;5094215;28;20993;-77
2021/07/09 08:42:43;;;;;;;18.97;16.20;;;21.10;88.20;;;;;;5094573;28;20849;-77
2021/07/09 08:45:11;;;;;;;20.90;18.27;;;21.20;87.90;;;;;;5094541;28;20443;-77
2021/07/09 08:47:38;;;;;;;19.20;16.43;;;21.30;87.20;;;;;;5094338;28;20444;-76
2021/07/09 08:50:10;;;;;;;18.90;16.67;;;21.40;85.60;;;;;;5094195;28;20475;-77
2021/07/09 08:52:37;;;;;;;21.63;16.47;;;21.40;85.50;;;;;;5094004;28;20463;-76
2021/07/09 08:55:04;;;;;;;16.93;15.13;;;21.50;86.00;;;;;;5094435;28;20443;-77
2021/07/09 08:57:31;;;;;;;18.00;16.13;;;21.50;83.70;;;;;;5093920;28;20784;-77
2021/07/09 08:59:58;;;;;;;14.07;12.57;;;21.60;83.90;;;;;;5093893;28;20431;-76
2021/07/09 09:02:26;;;;;;;15.20;13.60;;;21.70;84.50;;;;;;5093995;28;20427;-77
2021/07/09 09:04:53;;;;;;;16.80;14.20;;;22.00;84.60;;;;;;5093894;28;20482;-77
2021/07/09 09:07:27;;;;;;;14.07;12.77;;;22.20;81.90;;;;;;5093887;28;20447;-77
2021/07/09 09:09:54;;;;;;;15.10;13.50;;;22.50;80.30;;;;;;5093593;28;20901;-76
2021/07/09 09:12:21;;;;;;;12.13;10.93;;;22.80;78.10;;;;;;5093789;28;20472;-77
2021/07/09 09:14:49;;;;;;;18.67;13.27;;;23.10;76.90;;;;;;5093499;28;20958;-76
2021/07/09 09:17:31;;;;;;;11.47;10.27;;;23.50;76.10;;;;;;5093813;28;20439;-77
2021/07/09 09:20:13;;;;;;;13.70;12.40;;;23.80;76.40;;;;;;5093639;28;20432;-77
2021/07/09 09:22:57;;;;;;;13.77;12.20;;;24.20;72.70;;;;;;5093852;28;20432;-77
2021/07/09 09:25:26;;;;;;;14.10;11.20;;;24.30;69.50;;;;;;5093782;28;20424;-77
2021/07/09 09:28:05;;;;;;;13.73;11.87;;;24.50;70.70;;;;;;5093756;28;20439;-77
2021/07/09 09:30:32;;;;;;;13.03;11.73;;;24.80;70.00;;;;;;5094006;28;20467;-77
2021/07/09 09:33:02;;;;;;;16.90;11.23;;;24.90;70.80;;;;;;5098909;28;20431;-77
2021/07/09 09:35:31;;;;;;;12.77;11.40;;;25.30;67.80;;;;;;5098231;28;20428;-78
2021/07/09 09:38:03;;;;;;;14.60;12.33;;;25.60;67.60;;;;;;5098354;28;20788;-77
2021/07/09 09:40:30;;;;;;;12.20;10.77;;;25.70;65.80;;;;;;5097830;28;20463;-77
2021/07/09 09:42:57;;;;;;;12.60;11.50;;;25.80;63.70;;;;;;5097975;28;20556;-77
2021/07/09 09:45:25;;;;;;;13.30;12.03;;;25.80;62.70;;;;;;5097895;28;20450;-77
2021/07/09 09:47:51;;;;;;;15.63;12.80;;;26.00;62.20;;;;;;5097971;28;20447;-77
2021/07/09 09:50:21;;;;;;;12.27;11.10;;;26.00;60.80;;;;;;5097501;28;20470;-77
2021/07/09 09:52:49;;;;;;;15.60;10.70;;;26.10;59.50;;;;;;5097755;28;20420;-77
2021/07/09 09:55:23;;;;;;;12.10;10.80;;;26.20;59.40;;;;;;5097678;28;20431;-77
2021/07/09 09:58:08;;;;;;;17.67;10.50;;;26.30;60.40;;;;;;5097649;28;20416;-78
2021/07/09 10:00:35;;;;;;;11.40;10.00;;;26.50;60.50;;;;;;5097785;28;20466;-77
2021/07/09 10:03:04;;;;;;;26.37;13.87;;;26.70;59.40;;;;;;5097941;28;20424;-78
2021/07/09 10:05:32;;;;;;;12.37;9.90;;;26.80;58.80;;;;;;5098192;28;20482;-78
2021/07/09 10:07:59;;;;;;;13.07;11.77;;;27.10;57.20;;;;;;5098713;28;20427;-78
2021/07/09 10:10:29;;;;;;;15.87;11.37;;;27.50;54.40;;;;;;5098376;28;20964;-78
2021/07/09 10:12:57;;;;;;;11.33;9.70;;;27.50;54.40;;;;;;5099033;28;20428;-78
2021/07/09 10:15:26;;;;;;;12.50;10.00;;;27.50;53.60;;;;;;5098913;28;20440;-78
2021/07/09 10:17:55;;;;;;;12.77;10.43;;;27.60;54.90;;;;;;5098939;28;20447;-78
2021/07/09 10:20:22;;;;;;;11.27;10.13;;;27.60;52.50;;;;;;5099410;28;20459;-78
2021/07/09 10:22:50;;;;;;;11.90;10.57;;;27.60;54.00;;;;;;5099129;28;20436;-77
2021/07/09 10:25:19;;;;;;;9.50;8.50;;;27.40;53.40;;;;;;5098792;28;20800;-78
2021/07/09 10:27:48;;;;;;;10.73;9.33;;;27.30;54.10;;;;;;5098309;28;20440;-78
2021/07/09 10:30:15;;;;;;;8.40;7.40;;;27.20;55.20;;;;;;5098493;28;20468;-77
2021/07/09 10:32:43;;;;;;;7.90;7.20;;;27.10;53.40;;;;;;5097772;28;20470;-77
2021/07/09 10:35:12;;;;;;;8.50;7.70;;;27.10;53.60;;;;;;5099149;28;20447;-78
2021/07/09 10:37:39;;;;;;;7.87;7.07;;;27.00;52.10;;;;;;5099304;28;20424;-78
2021/07/09 10:40:20;;;;;;;8.73;7.83;;;26.90;52.80;;;;;;5098492;28;20478;-78
2021/07/09 10:42:52;;;;;;;9.47;7.30;;;26.80;51.70;;;;;;5095901;28;20527;-78
2021/07/09 10:45:24;;;;;;;11.70;8.57;;;26.80;54.60;;;;;;5096513;28;20435;-76
2021/07/09 10:47:56;;;;;;;8.90;8.00;;;26.70;54.40;;;;;;5096508;28;20432;-76
2021/07/09 10:50:41;;;;;;;10.33;9.33;;;26.80;54.00;;;;;;5096210;28;20462;-75
2021/07/09 10:53:20;;;;;;;9.97;8.97;;;26.70;52.50;;;;;;5096451;28;20779;-76
2021/07/09 10:55:52;;;;;;;9.57;8.67;;;26.60;52.70;;;;;;5096383;28;20427;-76
2021/07/09 10:58:41;;;;;;;8.83;8.00;;;26.50;53.60;;;;;;5096238;28;20445;-76
2021/07/09 11:01:21;;;;;;;7.57;6.80;;;26.60;53.70;;;;;;5096227;28;20493;-76
2021/07/09 11:03:49;;;;;;;7.77;6.97;;;26.60;54.70;;;;;;5097149;28;20445;-78
2021/07/09 11:06:19;;;;;;;6.70;6.10;;;26.80;54.50;;;;;;5098502;28;20428;-78
2021/07/09 11:09:03;;;;;;;7.87;7.27;;;27.00;53.80;;;;;;5098180;28;20428;-78
2021/07/09 11:11:35;;;;;;;7.10;6.60;;;27.20;53.50;;;;;;5096733;28;20488;-77
2021/07/09 11:14:04;;;;;;;7.07;5.97;;;27.20;52.30;;;;;;5097162;28;20427;-77
2021/07/09 11:16:35;;;;;;;7.73;6.60;;;27.30;52.10;;;;;;5097466;28;20427;-76
2021/07/09 11:19:08;;;;;;;7.90;6.77;;;27.50;52.70;;;;;;5097651;28;20424;-79
2021/07/09 11:21:52;;;;;;;8.57;7.67;;;27.60;52.30;;;;;;5098709;28;20505;-79
2021/07/09 11:24:21;;;;;;;7.67;6.87;;;27.50;51.20;;;;;;5098680;28;20436;-79
2021/07/09 11:26:49;;;;;;;8.13;7.40;;;27.70;51.90;;;;;;5099686;28;20443;-80
2021/07/09 11:29:27;;;;;;;9.43;8.43;;;27.50;51.50;;;;;;5099674;28;20454;-79
2021/07/09 11:31:55;;;;;;;8.33;7.53;;;27.60;50.50;;;;;;5100253;28;20483;-79
2021/07/09 11:34:23;;;;;;;9.30;7.30;;;27.70;51.10;;;;;;5099866;28;20893;-79
2021/07/09 11:36:52;;;;;;;9.20;8.03;;;27.90;50.30;;;;;;5099767;28;20428;-78
2021/07/09 11:39:20;;;;;;;7.47;6.77;;;28.00;50.30;;;;;;5099738;28;20447;-78
2021/07/09 11:41:59;;;;;;;7.37;6.80;;;28.20;50.60;;;;;;5099071;28;20476;-79
2021/07/09 11:44:29;;;;;;;8.57;7.73;;;28.40;49.50;;;;;;5096636;28;20439;-77
2021/07/09 11:46:58;;;;;;;7.50;6.90;;;28.60;48.70;;;;;;5095983;28;20432;-77
2021/07/09 11:49:27;;;;;;;7.27;6.30;;;28.70;49.00;;;;;;5095702;28;20454;-77
2021/07/09 11:51:55;;;;;;;7.20;6.50;;;29.10;48.30;;;;;;5095594;28;20558;-77
2021/07/09 11:54:24;;;;;;;6.07;5.40;;;29.30;48.00;;;;;;5095368;28;20435;-77
2021/07/09 11:56:52;;;;;;;7.77;7.03;;;29.50;47.70;;;;;;5095288;28;20448;-77
2021/07/09 11:59:21;;;;;;;7.60;6.90;;;29.50;45.50;;;;;;5095518;28;20431;-77
2021/07/09 12:02:17;;;;;;;7.07;6.47;;;29.20;45.90;;;;;;5095874;28;20468;-78
2021/07/09 12:04:46;;;;;;;7.00;6.40;;;29.30;47.20;;;;;;5059463;28;20863;-77
2021/07/09 12:07:15;;;;;;;6.47;5.87;;;29.40;45.10;;;;;;5094936;28;20440;-77
2021/07/09 12:09:44;;;;;;;5.97;5.47;;;29.30;45.80;;;;;;5094729;28;20925;-77
2021/07/09 12:12:10;;;;;;;6.60;6.10;;;29.40;47.50;;;;;;5094568;28;21019;-77
2021/07/09 12:14:53;;;;;;;6.07;5.50;;;29.10;45.70;;;;;;5094570;28;20920;-77
2021/07/09 12:17:22;;;;;;;5.63;5.13;;;28.70;47.40;;;;;;5094917;28;20428;-77
2021/07/09 12:20:05;;;;;;;5.87;5.40;;;28.40;48.30;;;;;;5094747;28;20424;-77
2021/07/09 12:22:33;;;;;;;7.30;6.60;;;28.00;49.60;;;;;;5094710;28;20424;-77
2021/07/09 12:25:04;;;;;;;7.53;6.93;;;27.80;50.20;;;;;;5094572;28;20448;-77
2021/07/09 12:27:32;;;;;;;9.33;8.57;;;27.70;50.90;;;;;;5094509;28;20794;-77
2021/07/09 12:29:59;;;;;;;8.97;8.07;;;27.00;51.50;;;;;;5094452;28;20812;-77
2021/07/09 12:32:27;;;;;;;9.33;7.80;;;26.60;54.30;;;;;;5094287;28;20471;-76
2021/07/09 12:35:05;;;;;;;13.50;7.13;;;27.00;53.30;;;;;;5094439;28;20439;-76
2021/07/09 12:37:32;;;;;;;7.00;6.30;;;27.80;53.30;;;;;;5094352;28;20424;-77
2021/07/09 12:40:13;;;;;;;10.37;7.60;;;28.90;49.20;;;;;;5094618;28;20451;-77